KCLM/CLM METAR and TAF weather

Enter ICAO airport designator
Station Type Date Time Source
KCLM METAR 2018/10/22 15:53 UTC NOAA

KCLM 221553Z AUTO 00000KT 5SM BR FEW002 04/04 A2999 RMK AO2 SLP158 T00440039


Station Type Date Time Source
KCLM Decoded METAR 2018/10/22 15:53 UTC NOAA

PORT ANGELES FAIRCHILD INTERNATIONAL , WA, United States (KCLM) 48-07N 123-30W 85M
Oct 22, 2018 - 11:53 AM EDT / 2018.10.22 1553 UTC
Wind: Calm:0
Visibility: 5 mile(s):0
Sky conditions: mostly clear
Weather: mist
Temperature: 39.9 F (4.4 C)
Dew Point: 39.0 F (3.9 C)
Relative Humidity: 96%
Pressure (altimeter): 29.99 in. Hg (1015 hPa)
ob: KCLM 221553Z AUTO 00000KT 5SM BR FEW002 04/04 A2999 RMK AO2 SLP158 T00440039
cycle: 16

Station Type Date Time Source
KCLM TAF 2018/10/22 15:04 UTC NOAA

TAF
AMD KCLM 221502Z 2215/2312 VRB03KT 5SM BR SCT002
TEMPO 2215/2217 2SM BR BKN002
FM222100 VRB03KT P6SM VCFG SKC


Example: see airport list